^^
Meteo Knjazevac Station Historical Data
Daily Summary for October 31, 2021 Units:  Metric    English   Both
Daily Weekly Monthly Yearly Custom
  High: Low: Average:
Temperature: 15.8 °C 2.1 °C 7.3 °C
Dew Point: 10.4 °C 1.8 °C 5.7 °C
Humidity: 99% 66% 90%
Wind Speed: 9.7km/h 0km/h 3.7km/h
Wind Gust: 19.3km/h - -
Wind- - South
Pressure: 1026.3 hPa 1020.5 hPa -
Precipitation: 0 mm    
Historical Graphs
 
 
Tabular Data for October 31, 2021
Time Temperature Dew Point Pressure Wind Wind Speed Wind Gust Humidity Rainfall Rate (Hourly) solar Conditions
00:00 2.1 °C 1.8 °C 1026.3 hPa WNW 3.2 km/h 9.7 km/h 98% 0 mm 0 W/m2
00:10 2.4 °C 2.2 °C 1026.3 hPa WNW 3.2 km/h 6.4 km/h 99% 0 mm 0 W/m2
00:20 2.6 °C 2.4 °C 1026.3 hPa West 3.2 km/h 6.4 km/h 99% 0 mm 0 W/m2
00:30 2.8 °C 2.7 °C 1026 hPa Calm   3.2 km/h 99% 0 mm 0 W/m2
00:40 2.9 °C 2.8 °C 1026 hPa Calm   1.6 km/h 99% 0 mm 0 W/m2
00:50 3 °C 2.8 °C 1026 hPa West 1.6 km/h 3.2 km/h 99% 0 mm 0 W/m2
01:00 3.1 °C 2.9 °C 1026 hPa Calm   3.2 km/h 99% 0 mm 0 W/m2
01:10 3.2 °C 3.1 °C 1026 hPa WNW 1.6 km/h 3.2 km/h 99% 0 mm 0 W/m2
01:20 3.3 °C 3.2 °C 1026 hPa Calm   3.2 km/h 99% 0 mm 0 W/m2
01:30 3.4 °C 3.3 °C 1026 hPa NNW 1.6 km/h 3.2 km/h 99% 0 mm 0 W/m2
01:40 3.5 °C 3.3 °C 1026 hPa Calm   3.2 km/h 99% 0 mm 0 W/m2
01:50 3.6 °C 3.4 °C 1026 hPa Calm   3.2 km/h 99% 0 mm 0 W/m2
02:00 3.8 °C 3.7 °C 1026 hPa Calm   3.2 km/h 99% 0 mm 0 W/m2
02:10 4 °C 3.8 °C 1026 hPa North 1.6 km/h 3.2 km/h 99% 0 mm 0 W/m2
02:20 4 °C 3.9 °C 1026 hPa Calm   3.2 km/h 99% 0 mm 0 W/m2
02:30 4.2 °C 4.1 °C 1025.6 hPa Calm   1.6 km/h 99% 0 mm 0 W/m2
02:40 4.2 °C 4.1 °C 1025.6 hPa Calm   3.2 km/h 99% 0 mm 0 W/m2
02:50 4.3 °C 4.2 °C 1025.6 hPa Calm   3.2 km/h 99% 0 mm 0 W/m2
02:00 4.4 °C 4.3 °C 1025.6 hPa Calm   1.6 km/h 99% 0 mm 0 W/m2
02:10 4.5 °C 4.3 °C 1025.6 hPa Calm   3.2 km/h 99% 0 mm 0 W/m2
02:20 4.5 °C 4.3 °C 1025.6 hPa North 1.6 km/h 3.2 km/h 99% 0 mm 0 W/m2
02:30 4.6 °C 4.5 °C 1025.3 hPa NNE 3.2 km/h 4.8 km/h 99% 0 mm 0 W/m2
02:40 4.7 °C 4.6 °C 1025.3 hPa ENE 3.2 km/h 9.7 km/h 99% 0 mm 0 W/m2
02:50 4.8 °C 4.7 °C 1025.3 hPa East 4.8 km/h 8 km/h 99% 0 mm 0 W/m2
03:00 4.8 °C 4.7 °C 1025.3 hPa East 4.8 km/h 8 km/h 99% 0 mm 0 W/m2
03:10 4.9 °C 4.8 °C 1024.9 hPa East 3.2 km/h 8 km/h 99% 0 mm 0 W/m2
03:20 4.9 °C 4.8 °C 1024.9 hPa East 8 km/h 11.3 km/h 99% 0 mm 0 W/m2
03:30 4.9 °C 4.8 °C 1024.9 hPa ENE 3.2 km/h 8 km/h 99% 0 mm 0 W/m2
03:40 4.9 °C 4.8 °C 1024.9 hPa East 3.2 km/h 8 km/h 99% 0 mm 0 W/m2
03:50 5 °C 4.8 °C 1024.9 hPa ENE 4.8 km/h 9.7 km/h 99% 0 mm 0 W/m2
04:00 5 °C 4.8 °C 1024.9 hPa NE 3.2 km/h 8 km/h 99% 0 mm 0 W/m2
04:10 5 °C 4.8 °C 1024.9 hPa East 8 km/h 12.9 km/h 99% 0 mm 0 W/m2
04:20 4.9 °C 4.8 °C 1024.9 hPa East 4.8 km/h 11.3 km/h 99% 0 mm 0 W/m2
04:30 4.9 °C 4.7 °C 1024.9 hPa East 9.7 km/h 12.9 km/h 99% 0 mm 0 W/m2
04:40 4.8 °C 4.6 °C 1024.9 hPa East 8 km/h 14.5 km/h 99% 0 mm 0 W/m2
04:50 4.6 °C 4.4 °C 1024.9 hPa East 4.8 km/h 11.3 km/h 99% 0 mm 0 W/m2
05:00 4.5 °C 4.3 °C 1024.9 hPa East 8 km/h 11.3 km/h 99% 0 mm 0 W/m2
05:10 4.5 °C 4.3 °C 1024.9 hPa East 8 km/h 16.1 km/h 99% 0 mm 0 W/m2
05:20 4.4 °C 4.3 °C 1024.6 hPa ENE 4.8 km/h 9.7 km/h 99% 0 mm 0 W/m2
05:30 4.3 °C 4.2 °C 1024.6 hPa ENE 3.2 km/h 14.5 km/h 99% 0 mm 0 W/m2
05:40 4.2 °C 4.1 °C 1024.6 hPa ENE 8 km/h 12.9 km/h 99% 0 mm 0 W/m2
05:50 4.2 °C 4.1 °C 1024.6 hPa ENE 4.8 km/h 11.3 km/h 99% 0 mm 0 W/m2
06:00 4.1 °C 3.9 °C 1024.6 hPa ENE 4.8 km/h 9.7 km/h 99% 0 mm 0 W/m2
06:10 4.1 °C 3.9 °C 1024.6 hPa ENE 8 km/h 11.3 km/h 99% 0 mm 2 W/m2
06:20 4 °C 3.8 °C 1024.6 hPa East 8 km/h 12.9 km/h 99% 0 mm 4 W/m2
06:30 3.9 °C 3.8 °C 1024.6 hPa East 9.7 km/h 14.5 km/h 99% 0 mm 9 W/m2
06:40 3.9 °C 3.8 °C 1024.6 hPa East 4.8 km/h 14.5 km/h 99% 0 mm 13 W/m2
06:50 3.9 °C 3.8 °C 1024.6 hPa East 8 km/h 12.9 km/h 99% 0 mm 18 W/m2
07:00 3.9 °C 3.8 °C 1024.6 hPa East 4.8 km/h 12.9 km/h 99% 0 mm 25 W/m2
07:10 3.8 °C 3.7 °C 1024.6 hPa East 9.7 km/h 14.5 km/h 99% 0 mm 31 W/m2
07:20 3.8 °C 3.7 °C 1024.6 hPa ENE 8 km/h 14.5 km/h 99% 0 mm 40 W/m2
07:30 3.8 °C 3.7 °C 1024.9 hPa ENE 4.8 km/h 12.9 km/h 99% 0 mm 47 W/m2
07:40 3.9 °C 3.8 °C 1024.9 hPa East 4.8 km/h 12.9 km/h 99% 0 mm 50 W/m2
07:50 4 °C 3.8 °C 1024.9 hPa ENE 3.2 km/h 12.9 km/h 99% 0 mm 71 W/m2
08:00 4.1 °C 3.9 °C 1024.9 hPa NE 4.8 km/h 9.7 km/h 99% 0 mm 78 W/m2
08:10 4.3 °C 4.2 °C 1024.9 hPa ENE 3.2 km/h 11.3 km/h 99% 0 mm 85 W/m2
08:20 4.4 °C 4.3 °C 1024.9 hPa ENE 4.8 km/h 9.7 km/h 99% 0 mm 97 W/m2
08:30 4.6 °C 4.5 °C 1024.9 hPa ENE 4.8 km/h 9.7 km/h 99% 0 mm 111 W/m2
08:40 4.8 °C 4.7 °C 1024.9 hPa East 3.2 km/h 9.7 km/h 99% 0 mm 120 W/m2
08:50 5.1 °C 4.9 °C 1024.6 hPa NE 3.2 km/h 8 km/h 99% 0 mm 140 W/m2
09:00 5.3 °C 5.2 °C 1024.6 hPa NNE 1.6 km/h 6.4 km/h 99% 0 mm 131 W/m2
09:10 5.5 °C 5.3 °C 1024.6 hPa NNE 1.6 km/h 6.4 km/h 99% 0 mm 140 W/m2
09:20 5.7 °C 5.6 °C 1024.6 hPa Calm   4.8 km/h 99% 0 mm 151 W/m2
09:30 6 °C 5.8 °C 1024.6 hPa Calm   3.2 km/h 99% 0 mm 158 W/m2
09:40 6.2 °C 6.1 °C 1024.3 hPa Calm   3.2 km/h 99% 0 mm 161 W/m2
09:50 6.6 °C 6.4 °C 1024.3 hPa West 1.6 km/h 3.2 km/h 99% 0 mm 164 W/m2
10:10 7.1 °C 6.9 °C 1024.3 hPa WNW 1.6 km/h 4.8 km/h 99% 0 mm 207 W/m2
10:20 7.3 °C 7.2 °C 1024.3 hPa WNW 1.6 km/h 3.2 km/h 99% 0 mm 183 W/m2
10:30 7.6 °C 7.4 °C 1024.3 hPa SW 3.2 km/h 6.4 km/h 99% 0 mm 224 W/m2
10:40 7.8 °C 7.6 °C 1023.9 hPa WSW 1.6 km/h 6.4 km/h 98% 0 mm 245 W/m2
10:50 8.2 °C 7.9 °C 1023.9 hPa Calm   4.8 km/h 98% 0 mm 307 W/m2
11:00 8.7 °C 8.1 °C 1023.6 hPa Calm   6.4 km/h 96% 0 mm 271 W/m2
11:10 9.2 °C 8.4 °C 1023.2 hPa South 3.2 km/h 4.8 km/h 95% 0 mm 496 W/m2
11:20 9.8 °C 8.9 °C 1023.2 hPa SSW 1.6 km/h 6.4 km/h 94% 0 mm 495 W/m2
11:30 10.6 °C 9.1 °C 1022.9 hPa WSW 1.6 km/h 6.4 km/h 91% 0 mm 493 W/m2
11:40 11.2 °C 9.4 °C 1022.9 hPa SW 3.2 km/h 8 km/h 89% 0 mm 490 W/m2
11:50 11.7 °C 9.4 °C 1022.9 hPa SSW 1.6 km/h 8 km/h 86% 0 mm 485 W/m2
12:00 12.3 °C 9.8 °C 1022.6 hPa South 3.2 km/h 8 km/h 85% 0 mm 478 W/m2
12:10 13.1 °C 10.1 °C 1022.2 hPa WSW 4.8 km/h 12.9 km/h 82% 0 mm 470 W/m2
12:20 13.7 °C 10.2 °C 1022.2 hPa North 1.6 km/h 11.3 km/h 79% 0 mm 460 W/m2
12:30 14.3 °C 10.4 °C 1021.9 hPa NNE 9.7 km/h 14.5 km/h 77% 0 mm 449 W/m2
12:40 14.8 °C 10.2 °C 1021.9 hPa North 4.8 km/h 11.3 km/h 74% 0 mm 437 W/m2
12:50 15.2 °C 9.7 °C 1021.6 hPa NNE 9.7 km/h 19.3 km/h 70% 0 mm 423 W/m2
13:00 15.5 °C 9.8 °C 1021.6 hPa North 8 km/h 14.5 km/h 69% 0 mm 407 W/m2
13:10 15.7 °C 9.8 °C 1021.2 hPa North 4.8 km/h 14.5 km/h 68% 0 mm 391 W/m2
13:20 15.8 °C 9.9 °C 1021.2 hPa North 8 km/h 12.9 km/h 68% 0 mm 373 W/m2
13:30 15.7 °C 9.6 °C 1021.2 hPa North 4.8 km/h 14.5 km/h 67% 0 mm 355 W/m2
13:40 15.6 °C 9.5 °C 1020.9 hPa North 4.8 km/h 14.5 km/h 67% 0 mm 335 W/m2
13:50 15.6 °C 9.5 °C 1020.9 hPa North 4.8 km/h 14.5 km/h 67% 0 mm 314 W/m2
14:00 15.6 °C 9.3 °C 1020.9 hPa North 9.7 km/h 14.5 km/h 66% 0 mm 292 W/m2
14:10 15.4 °C 9.3 °C 1020.9 hPa North 8 km/h 17.7 km/h 67% 0 mm 270 W/m2
14:20 15.3 °C 9.2 °C 1020.9 hPa North 8 km/h 17.7 km/h 67% 0 mm 247 W/m2
14:30 15 °C 8.9 °C 1020.9 hPa North 9.7 km/h 17.7 km/h 67% 0 mm 223 W/m2
14:40 14.7 °C 8.6 °C 1020.5 hPa North 8 km/h 16.1 km/h 67% 0 mm 199 W/m2
14:50 14.6 °C 8.8 °C 1020.5 hPa North 8 km/h 16.1 km/h 68% 0 mm 174 W/m2
15:00 14.3 °C 8.7 °C 1020.5 hPa North 4.8 km/h 16.1 km/h 69% 0 mm 147 W/m2
15:10 14.1 °C 8.4 °C 1020.5 hPa North 4.8 km/h 11.3 km/h 69% 0 mm 123 W/m2
15:20 13.8 °C 8.2 °C 1020.5 hPa North 3.2 km/h 12.9 km/h 69% 0 mm 99 W/m2
15:30 13.4 °C 7.9 °C 1020.5 hPa North 8 km/h 12.9 km/h 69% 0 mm 79 W/m2
15:40 13.2 °C 7.8 °C 1020.5 hPa NNW 8 km/h 12.9 km/h 70% 0 mm 58 W/m2
15:50 12.8 °C 7.9 °C 1020.5 hPa NNW 8 km/h 14.5 km/h 72% 0 mm 38 W/m2
16:00 12.4 °C 7.7 °C 1020.5 hPa North 8 km/h 12.9 km/h 73% 0 mm 19 W/m2
16:10 12.1 °C 7.4 °C 1020.5 hPa NNW 8 km/h 12.9 km/h 73% 0 mm 4 W/m2
16:20 11.8 °C 7.3 °C 1020.5 hPa North 3.2 km/h 14.5 km/h 74% 0 mm 7 W/m2
16:30 11.4 °C 7.1 °C 1020.5 hPa NNW 8 km/h 16.1 km/h 75% 0 mm 0 W/m2
16:40 11.1 °C 7.2 °C 1020.5 hPa NNW 4.8 km/h 12.9 km/h 77% 0 mm 0 W/m2
16:50 10.8 °C 7.2 °C 1020.5 hPa NNW 4.8 km/h 11.3 km/h 78% 0 mm 0 W/m2
17:00 10.6 °C 7.1 °C 1020.9 hPa NNW 1.6 km/h 11.3 km/h 79% 0 mm 0 W/m2
17:10 10.3 °C 6.9 °C 1020.9 hPa Calm   8 km/h 79% 0 mm 0 W/m2
17:20 10.1 °C 6.6 °C 1020.9 hPa Calm   4.8 km/h 79% 0 mm 0 W/m2
17:30 9.7 °C 6.4 °C 1020.9 hPa ESE 1.6 km/h 3.2 km/h 80% 0 mm 0 W/m2
17:40 9.3 °C 6 °C 1020.9 hPa SE 1.6 km/h 4.8 km/h 80% 0 mm 0 W/m2
17:50 8.8 °C 5.7 °C 1020.9 hPa SSE 1.6 km/h 6.4 km/h 81% 0 mm 0 W/m2
18:00 8.4 °C 5.7 °C 1020.9 hPa South 1.6 km/h 4.8 km/h 83% 0 mm 0 W/m2
18:10 8.1 °C 5.6 °C 1020.9 hPa NNW 1.6 km/h 4.8 km/h 84% 0 mm 0 W/m2
18:20 7.8 °C 5.3 °C 1020.9 hPa WSW 1.6 km/h 4.8 km/h 84% 0 mm 0 W/m2
18:30 7.4 °C 5.1 °C 1020.9 hPa West 1.6 km/h 3.2 km/h 85% 0 mm 0 W/m2
18:40 7.2 °C 4.8 °C 1020.9 hPa WSW 1.6 km/h 3.2 km/h 85% 0 mm 0 W/m2
18:50 6.8 °C 4.6 °C 1020.9 hPa WSW 3.2 km/h 4.8 km/h 86% 0 mm 0 W/m2
19:00 6.5 °C 4.7 °C 1020.9 hPa West 3.2 km/h 4.8 km/h 88% 0 mm 0 W/m2
19:10 6.3 °C 4.4 °C 1020.9 hPa WSW 3.2 km/h 6.4 km/h 88% 0 mm 0 W/m2
19:20 6 °C 4.3 °C 1020.9 hPa West 3.2 km/h 6.4 km/h 89% 0 mm 0 W/m2
19:30 5.8 °C 4.1 °C 1020.9 hPa WSW 1.6 km/h 4.8 km/h 89% 0 mm 0 W/m2
19:40 5.5 °C 4 °C 1020.9 hPa WSW 3.2 km/h 4.8 km/h 90% 0 mm 0 W/m2
19:50 5.3 °C 3.8 °C 1020.9 hPa Calm   4.8 km/h 90% 0 mm 0 W/m2
20:00 5.1 °C 3.8 °C 1020.9 hPa WNW 3.2 km/h 4.8 km/h 91% 0 mm 0 W/m2
20:10 4.9 °C 3.4 °C 1020.9 hPa WNW 1.6 km/h 6.4 km/h 90% 0 mm 0 W/m2
20:20 4.6 °C 3.1 °C 1020.9 hPa WNW 3.2 km/h 4.8 km/h 90% 0 mm 0 W/m2
20:30 4.4 °C 3.1 °C 1020.9 hPa Calm   3.2 km/h 91% 0 mm 0 W/m2
20:40 4.2 °C 2.7 °C 1020.9 hPa Calm   3.2 km/h 90% 0 mm 0 W/m2
20:50 3.9 °C 2.6 °C 1020.9 hPa Calm   3.2 km/h 91% 0 mm 0 W/m2
21:00 3.8 °C 2.4 °C 1020.9 hPa Calm   3.2 km/h 91% 0 mm 0 W/m2
Knjazevac, Serbia
Compliments of Weather Underground - 2 mb